Brice, Ohio
Current Conditions -  °F | °C
As of 3:51 PM on Tuesday 25 Nov 2014 (Local Time) from KCMH Reporting Station
Broken Clouds Broken Clouds  
Wind Chill: 33°   Ceiling: 3300
Heat Index: 39°   Visibility: 10mi
Dew Point: 27°   Wind: 9mph
Humidity: 62%   Direction: 250°WSW
Pressure: 30.1"   Gusts: NA
Location:  39.92°N, 82.83°W
Report Text: KCMH 252051Z 25008KT 10SM BKN033 04/M03 A3010 RMK AO2 SLP200 T00391028 52004
Loading
Personal Weather Stations






























Interactive Weather Map New forecast layout! Learn more

10-Day Weather Forecast

Advertisements
Track Severe Weather on mobile